createdAt,value
2019-03-27T00:01:11.388Z,72.39
2019-03-27T00:03:47.402Z,72.41
2019-03-27T00:06:24.546Z,72.66
2019-03-27T00:09:00.703Z,72.83
2019-03-27T00:11:38.387Z,72.64
2019-03-27T00:14:15.373Z,72.66
2019-03-27T00:16:52.308Z,72.52
2019-03-27T00:19:28.337Z,72.49
2019-03-27T00:22:04.467Z,72.37
2019-03-27T00:24:40.322Z,72.27
2019-03-27T00:27:16.321Z,72.66
2019-03-27T00:29:52.322Z,72.76
2019-03-27T00:32:27.954Z,72.63
2019-03-27T00:35:03.962Z,72.75
2019-03-27T00:37:39.945Z,72.73
2019-03-27T00:40:15.289Z,72.73
2019-03-27T00:42:50.643Z,72.44
2019-03-27T00:45:27.192Z,72.71
2019-03-27T00:48:02.673Z,73.07
2019-03-27T00:50:38.290Z,73.14
2019-03-27T00:53:13.721Z,73.41
2019-03-27T00:55:49.284Z,73.41
2019-03-27T00:58:24.675Z,73.07
2019-03-27T01:01:15.904Z,72.82
2019-03-27T01:03:49.594Z,72.60
2019-03-27T01:06:24.877Z,72.48
2019-03-27T01:09:00.280Z,71.97
2019-03-27T01:11:35.672Z,71.97
2019-03-27T01:14:11.276Z,72.18
2019-03-27T01:16:46.677Z,71.98
2019-03-27T01:19:22.289Z,71.69
2019-03-27T01:21:57.647Z,71.43
2019-03-27T01:24:32.936Z,71.66
2019-03-27T01:27:06.708Z,71.58
2019-03-27T01:29:41.866Z,71.64
2019-03-27T01:32:17.297Z,71.70
2019-03-27T01:34:52.621Z,71.66
2019-03-27T01:37:27.934Z,71.50
2019-03-27T01:40:03.280Z,71.59
2019-03-27T01:42:38.682Z,71.67
2019-03-27T01:45:14.294Z,71.45
2019-03-27T01:47:49.642Z,71.44
2019-03-27T01:50:24.930Z,71.52
2019-03-27T01:53:00.295Z,71.50
2019-03-27T01:55:35.700Z,71.57
2019-03-27T01:58:10.905Z,71.52
2019-03-27T02:00:44.677Z,71.37
2019-03-27T02:03:20.774Z,71.47
2019-03-27T02:08:19.786Z,71.59
2019-03-27T02:10:55.283Z,71.64
2019-03-27T02:13:30.683Z,71.77
2019-03-27T02:16:12.676Z,71.57
2019-03-27T02:18:47.942Z,71.53
2019-03-27T02:21:23.291Z,71.86
2019-03-27T02:26:39.739Z,72.23
2019-03-27T02:29:15.322Z,72.33
2019-03-27T02:31:50.734Z,72.39
2019-03-27T02:34:26.268Z,72.60
2019-03-27T02:37:01.689Z,72.85
2019-03-27T02:39:37.272Z,72.82
2019-03-27T02:42:12.682Z,73.10
2019-03-27T02:44:48.262Z,73.14
2019-03-27T02:47:23.708Z,73.24
2019-03-27T02:49:59.195Z,73.42
2019-03-27T02:52:34.624Z,73.35
2019-03-27T02:55:10.274Z,73.35
2019-03-27T02:57:45.701Z,73.50
2019-03-27T03:00:22.284Z,73.52
2019-03-27T03:02:57.703Z,73.73
2019-03-27T03:05:33.136Z,73.86
2019-03-27T03:08:08.328Z,73.56
2019-03-27T03:10:45.832Z,73.56
2019-03-27T03:13:20.675Z,73.82
2019-03-27T03:15:55.951Z,73.98
2019-03-27T03:18:31.328Z,73.94
2019-03-27T03:21:06.699Z,73.89
2019-03-27T03:23:42.282Z,74.15
2019-03-27T03:26:17.720Z,74.15
2019-03-27T03:28:53.266Z,73.93
2019-03-27T03:31:28.730Z,73.99
2019-03-27T03:34:04.262Z,74.28
2019-03-27T03:36:39.683Z,74.39
2019-03-27T03:39:15.284Z,74.49
2019-03-27T03:41:50.656Z,74.53
2019-03-27T03:44:25.947Z,74.52
2019-03-27T03:47:01.277Z,74.56
2019-03-27T03:49:36.720Z,74.71
2019-03-27T03:52:12.288Z,74.71
2019-03-27T03:54:47.676Z,74.78
2019-03-27T03:57:24.760Z,74.77
2019-03-27T04:00:02.868Z,74.77
2019-03-27T04:02:41.267Z,74.77
2019-03-27T04:05:21.283Z,74.54
2019-03-27T04:07:56.818Z,74.42
2019-03-27T04:10:32.288Z,74.32
2019-03-27T04:13:07.697Z,74.36
2019-03-27T04:15:43.286Z,74.27
2019-03-27T04:18:18.671Z,74.34
2019-03-27T04:20:54.288Z,74.37
2019-03-27T04:23:29.671Z,74.40
2019-03-27T04:26:10.414Z,74.12
2019-03-27T04:28:41.881Z,74.37
2019-03-27T04:31:15.504Z,74.45
2019-03-27T04:33:51.675Z,74.52
2019-03-27T04:36:27.276Z,74.61
2019-03-27T04:39:02.706Z,74.57
2019-03-27T04:41:38.258Z,74.67
2019-03-27T04:44:13.794Z,74.95
2019-03-27T04:46:49.275Z,74.92
2019-03-27T04:49:24.694Z,74.83
2019-03-27T04:52:00.285Z,75.00
2019-03-27T04:54:35.710Z,75.16
2019-03-27T04:57:09.553Z,74.83
2019-03-27T04:59:44.684Z,74.83
2019-03-27T05:02:20.263Z,75.05
2019-03-27T05:04:56.267Z,74.95
2019-03-27T05:07:31.690Z,75.03
2019-03-27T05:10:07.311Z,74.97
2019-03-27T05:12:43.685Z,75.00
2019-03-27T05:15:19.259Z,74.89
2019-03-27T05:17:54.877Z,74.88
2019-03-27T05:20:28.837Z,74.60
2019-03-27T05:23:02.676Z,74.49
2019-03-27T05:25:37.889Z,74.34
2019-03-27T05:28:11.564Z,74.21
2019-03-27T05:30:46.717Z,74.21
2019-03-27T05:33:22.279Z,74.18
2019-03-27T05:35:57.686Z,74.33
2019-03-27T05:38:33.271Z,74.45
2019-03-27T05:41:08.704Z,74.52
2019-03-27T05:43:44.239Z,74.24
2019-03-27T05:46:19.698Z,74.25
2019-03-27T05:48:55.277Z,74.39
2019-03-27T05:51:30.659Z,74.39
2019-03-27T05:54:06.274Z,74.44
2019-03-27T05:56:41.671Z,74.44
2019-03-27T05:59:17.275Z,74.06
2019-03-27T06:01:52.708Z,74.06
2019-03-27T06:04:28.225Z,74.13
2019-03-27T06:07:03.679Z,74.18
2019-03-27T06:09:39.274Z,74.15
2019-03-27T06:12:14.691Z,74.07
2019-03-27T06:14:49.891Z,74.12
2019-03-27T06:17:23.611Z,74.16
2019-03-27T06:19:58.884Z,73.99
2019-03-27T06:22:34.278Z,74.00
2019-03-27T06:25:10.290Z,73.93
2019-03-27T06:27:45.673Z,74.18
2019-03-27T06:30:21.280Z,74.13
2019-03-27T06:32:56.675Z,73.96
2019-03-27T06:35:32.127Z,73.92
2019-03-27T06:38:07.663Z,74.07
2019-03-27T06:40:43.246Z,74.33
2019-03-27T06:43:18.873Z,74.43
2019-03-27T06:45:54.274Z,74.13
2019-03-27T06:48:29.689Z,74.32
2019-03-27T06:51:04.879Z,74.54
2019-03-27T06:53:38.598Z,74.88
2019-03-27T06:56:14.276Z,74.88
2019-03-27T06:58:54.892Z,74.86
2019-03-27T07:01:26.658Z,74.76
2019-03-27T07:04:10.461Z,74.58
2019-03-27T07:06:38.855Z,73.93
2019-03-27T07:09:13.015Z,73.56
2019-03-27T07:11:47.594Z,73.24
2019-03-27T07:14:22.667Z,73.10
2019-03-27T07:16:58.265Z,73.21
2019-03-27T07:19:33.760Z,73.34
2019-03-27T07:22:09.277Z,73.46
2019-03-27T07:24:45.641Z,73.58
2019-03-27T07:27:20.937Z,73.90
2019-03-27T07:29:56.276Z,73.90
2019-03-27T07:32:31.685Z,74.13
2019-03-27T07:35:07.273Z,74.09
2019-03-27T07:37:42.700Z,74.24
2019-03-27T07:40:18.286Z,74.23
2019-03-27T07:42:53.677Z,74.30
2019-03-27T07:45:29.247Z,74.07
2019-03-27T07:48:04.666Z,74.44
2019-03-27T07:50:39.883Z,74.60
2019-03-27T07:53:15.283Z,74.54
2019-03-27T07:55:50.681Z,74.56
2019-03-27T07:58:26.271Z,74.19
2019-03-27T08:01:01.885Z,73.80
2019-03-27T08:03:37.312Z,73.89
2019-03-27T08:06:12.651Z,73.85
2019-03-27T08:08:47.920Z,73.97
2019-03-27T08:11:23.420Z,73.51
2019-03-27T08:13:58.941Z,73.40
2019-03-27T08:16:34.256Z,73.04
2019-03-27T08:19:09.682Z,73.21
2019-03-27T08:21:45.259Z,72.56
2019-03-27T08:24:20.695Z,72.71
2019-03-27T08:26:56.244Z,72.43
2019-03-27T08:29:31.679Z,72.14
2019-03-27T08:32:07.132Z,72.25
2019-03-27T08:34:42.617Z,71.20
2019-03-27T08:37:17.911Z,71.20
2019-03-27T08:39:53.290Z,70.73
2019-03-27T08:42:29.648Z,70.52
2019-03-27T08:45:05.283Z,70.20
2019-03-27T08:47:40.955Z,70.41
2019-03-27T08:50:16.759Z,69.64
2019-03-27T08:52:52.273Z,69.64
2019-03-27T08:55:27.702Z,68.99
2019-03-27T08:58:03.273Z,68.11
2019-03-27T09:00:52.688Z,66.58
2019-03-27T09:03:28.266Z,65.69
2019-03-27T09:06:03.668Z,63.79
2019-03-27T09:08:39.254Z,64.32
2019-03-27T09:11:14.857Z,63.85
2019-03-27T09:13:48.588Z,63.51
2019-03-27T09:16:23.760Z,62.12
2019-03-27T09:18:59.274Z,62.49
2019-03-27T09:21:34.685Z,62.80
2019-03-27T09:24:09.951Z,62.60
2019-03-27T09:26:45.273Z,61.82
2019-03-27T09:29:20.685Z,61.79
2019-03-27T09:31:54.572Z,61.01
2019-03-27T09:34:30.664Z,61.01
2019-03-27T09:37:05.949Z,60.26
2019-03-27T09:39:41.326Z,60.36
2019-03-27T09:42:16.892Z,60.49
2019-03-27T09:44:52.282Z,60.58
2019-03-27T09:47:27.694Z,59.34
2019-03-27T09:50:03.320Z,59.36
2019-03-27T09:52:39.261Z,59.82
2019-03-27T09:55:15.043Z,59.28
2019-03-27T09:57:50.702Z,56.25
2019-03-27T10:01:04.795Z,56.00
2019-03-27T10:03:38.558Z,57.11
2019-03-27T10:06:13.958Z,56.15
2019-03-27T10:08:47.668Z,55.71
2019-03-27T10:11:23.928Z,53.84
2019-03-27T10:13:59.645Z,53.27
2019-03-27T10:16:34.942Z,53.27
2019-03-27T10:19:08.566Z,52.38
2019-03-27T10:21:43.929Z,52.38
2019-03-27T10:24:17.394Z,53.66
2019-03-27T10:26:52.679Z,53.61
2019-03-27T10:29:28.276Z,54.71
2019-03-27T10:32:03.714Z,55.92
2019-03-27T10:34:39.275Z,55.37
2019-03-27T10:37:14.701Z,55.19
2019-03-27T10:39:50.286Z,55.36
2019-03-27T10:42:25.702Z,55.68
2019-03-27T10:45:01.280Z,56.37
2019-03-27T10:47:36.690Z,57.39
2019-03-27T10:50:17.839Z,57.45
2019-03-27T10:52:49.342Z,57.93
2019-03-27T10:55:24.658Z,57.93
2019-03-27T10:58:00.292Z,58.01
2019-03-27T11:00:35.680Z,58.60
2019-03-27T11:03:12.505Z,57.77
2019-03-27T11:05:47.952Z,57.56
2019-03-27T11:08:23.291Z,57.73
2019-03-27T11:10:58.694Z,57.35
2019-03-27T11:13:34.593Z,57.04
2019-03-27T11:16:10.277Z,56.42
2019-03-27T11:18:45.681Z,56.65
2019-03-27T11:21:21.278Z,57.18
2019-03-27T11:23:56.671Z,58.20
2019-03-27T11:26:31.901Z,58.10
2019-03-27T11:29:05.862Z,58.10
2019-03-27T11:31:41.286Z,58.32
2019-03-27T11:34:16.722Z,58.20
2019-03-27T11:36:50.787Z,58.10
2019-03-27T11:39:25.951Z,58.10
2019-03-27T11:42:00.917Z,58.24
2019-03-27T11:44:36.277Z,59.00
2019-03-27T11:47:11.668Z,58.81
2019-03-27T11:49:46.947Z,58.69
2019-03-27T11:52:22.279Z,58.04
2019-03-27T11:54:57.719Z,56.78
2019-03-27T11:57:33.947Z,55.83
2019-03-27T12:00:10.955Z,55.09
2019-03-27T12:02:46.690Z,55.30
2019-03-27T12:05:23.347Z,54.18
2019-03-27T12:07:58.698Z,54.16
2019-03-27T12:10:34.316Z,53.33
2019-03-27T12:13:09.675Z,52.87
2019-03-27T12:15:46.923Z,52.95
2019-03-27T12:18:20.565Z,53.89
2019-03-27T12:20:59.506Z,53.71
2019-03-27T12:23:32.670Z,54.39
2019-03-27T12:26:08.288Z,54.21
2019-03-27T12:28:43.716Z,54.59
2019-03-27T12:31:19.288Z,54.30
2019-03-27T12:35:03.338Z,54.28
2019-03-27T12:37:38.736Z,54.79
2019-03-27T12:40:14.350Z,54.52
2019-03-27T12:42:50.105Z,54.64
2019-03-27T12:45:25.952Z,54.74
2019-03-27T12:48:01.283Z,55.49
2019-03-27T12:52:41.606Z,56.51
2019-03-27T12:55:17.280Z,56.51
2019-03-27T12:57:52.692Z,57.09
2019-03-27T13:00:28.282Z,56.44
2019-03-27T13:03:03.768Z,56.58
2019-03-27T13:05:39.272Z,57.13
2019-03-27T13:08:14.636Z,56.93
2019-03-27T13:10:50.269Z,56.99
2019-03-27T13:13:25.692Z,57.03
2019-03-27T13:16:02.274Z,56.09
2019-03-27T13:18:37.662Z,55.70
2019-03-27T13:21:25.517Z,55.56
2019-03-27T13:23:51.278Z,54.54
2019-03-27T13:26:26.886Z,54.03
2019-03-27T13:29:02.279Z,54.13
2019-03-27T13:31:37.677Z,53.70
2019-03-27T13:34:12.923Z,53.24
2019-03-27T13:36:49.490Z,53.27
2019-03-27T13:39:24.859Z,53.26
2019-03-27T13:41:58.574Z,53.85
2019-03-27T13:44:37.362Z,53.89
2019-03-27T13:47:10.886Z,53.56
2019-03-27T13:49:44.615Z,52.75
2019-03-27T13:52:19.679Z,53.37
2019-03-27T13:54:55.286Z,53.76
2019-03-27T13:57:30.685Z,53.47
2019-03-27T14:00:06.787Z,53.60
2019-03-27T14:02:40.589Z,53.41
2019-03-27T14:05:17.347Z,53.41
2019-03-27T14:07:52.679Z,53.57
2019-03-27T14:10:28.042Z,53.10
2019-03-27T14:13:03.332Z,53.23
2019-03-27T14:15:39.276Z,53.23
2019-03-27T14:18:14.693Z,53.39
2019-03-27T14:20:50.241Z,52.76
2019-03-27T14:23:25.703Z,52.23
2019-03-27T14:26:01.260Z,52.51
2019-03-27T14:28:36.711Z,52.30
2019-03-27T14:31:10.855Z,52.67
2019-03-27T14:33:46.277Z,52.42
2019-03-27T14:36:21.856Z,52.64
2019-03-27T14:38:57.279Z,52.73
2019-03-27T14:41:32.868Z,52.62
2019-03-27T14:44:06.678Z,53.13
2019-03-27T14:46:41.918Z,53.86
2019-03-27T14:49:17.309Z,53.40
2019-03-27T14:51:52.674Z,53.79
2019-03-27T14:54:28.280Z,53.39
2019-03-27T14:57:03.663Z,52.72
2019-03-27T14:59:39.326Z,52.74
2019-03-27T15:02:14.769Z,52.36
2019-03-27T15:04:50.286Z,52.48
2019-03-27T15:07:25.944Z,52.59
2019-03-27T15:10:01.370Z,52.47
2019-03-27T15:12:36.880Z,51.71
2019-03-27T15:15:11.281Z,52.08
2019-03-27T15:17:46.670Z,51.92
2019-03-27T15:20:22.625Z,51.38
2019-03-27T15:22:58.005Z,51.59
2019-03-27T15:25:33.655Z,49.32
2019-03-27T15:28:08.949Z,49.32
2019-03-27T15:30:44.361Z,49.36
2019-03-27T15:33:20.138Z,50.18
2019-03-27T15:35:55.707Z,51.52
2019-03-27T15:38:31.280Z,51.52
2019-03-27T15:41:06.701Z,52.12
2019-03-27T15:43:41.868Z,52.54
2019-03-27T15:46:17.279Z,52.51
2019-03-27T15:48:52.631Z,52.98
2019-03-27T15:51:28.292Z,53.89
2019-03-27T15:54:03.892Z,54.09
2019-03-27T15:56:39.335Z,54.62
2019-03-27T15:59:14.670Z,54.66
2019-03-27T16:01:50.275Z,54.39
2019-03-27T16:04:25.679Z,54.75
2019-03-27T16:07:01.253Z,54.91
2019-03-27T16:09:36.683Z,54.97
2019-03-27T16:12:11.895Z,55.46
2019-03-27T16:14:45.639Z,55.41
2019-03-27T16:17:20.883Z,55.46
2019-03-27T16:19:54.996Z,55.91
2019-03-27T16:22:28.558Z,56.03
2019-03-27T16:25:03.737Z,56.13
2019-03-27T16:27:38.827Z,55.79
2019-03-27T16:30:17.060Z,56.00
2019-03-27T16:32:51.660Z,55.64
2019-03-27T16:35:27.247Z,55.63
2019-03-27T16:38:02.698Z,55.74
2019-03-27T16:40:49.278Z,55.34
2019-03-27T16:43:25.123Z,55.13
2019-03-27T16:46:00.676Z,55.23
2019-03-27T16:48:36.290Z,55.54
2019-03-27T16:51:12.158Z,55.61
2019-03-27T16:53:48.221Z,55.85
2019-03-27T16:56:23.718Z,55.99
2019-03-27T16:58:57.560Z,55.99
2019-03-27T17:01:33.274Z,55.68
2019-03-27T17:04:08.701Z,55.68
2019-03-27T17:06:45.278Z,55.76
2019-03-27T17:09:20.716Z,56.06
2019-03-27T17:11:54.670Z,56.06
2019-03-27T17:14:30.285Z,56.30
2019-03-27T17:17:05.721Z,55.98
2019-03-27T17:19:41.249Z,56.05
2019-03-27T17:22:19.846Z,56.10
2019-03-27T17:24:56.126Z,56.21
2019-03-27T17:27:31.671Z,56.60
2019-03-27T17:30:07.621Z,56.86
2019-03-27T17:32:43.279Z,57.07
2019-03-27T17:35:18.687Z,57.35
2019-03-27T17:37:54.281Z,57.41
2019-03-27T17:40:29.789Z,57.56
2019-03-27T17:43:03.631Z,57.70
2019-03-27T17:45:38.942Z,57.60
2019-03-27T17:48:12.716Z,57.73
2019-03-27T17:50:48.276Z,57.60
2019-03-27T17:53:31.621Z,57.57
2019-03-27T17:55:59.853Z,57.44
2019-03-27T17:58:35.390Z,57.40
2019-03-27T18:01:11.075Z,57.46
2019-03-27T18:03:46.322Z,57.72
2019-03-27T18:06:21.753Z,57.72
2019-03-27T18:08:57.264Z,57.68
2019-03-27T18:11:32.677Z,57.64
2019-03-27T18:14:08.281Z,57.64
2019-03-27T18:16:43.812Z,57.53
2019-03-27T18:19:17.860Z,57.35
2019-03-27T18:21:51.622Z,57.35
2019-03-27T18:24:26.928Z,57.37
2019-03-27T18:27:02.610Z,57.74
2019-03-27T18:29:38.283Z,57.63
2019-03-27T18:33:21.493Z,57.69
2019-03-27T18:35:57.279Z,57.87
2019-03-27T18:38:32.750Z,57.91
2019-03-27T18:41:08.281Z,58.00
2019-03-27T18:43:44.126Z,57.85
2019-03-27T18:46:21.394Z,57.88
2019-03-27T18:48:56.951Z,58.13
2019-03-27T18:51:32.279Z,57.99
2019-03-27T18:54:08.280Z,58.33
2019-03-27T18:56:43.815Z,58.53
2019-03-27T18:59:19.287Z,58.61
2019-03-27T19:01:56.694Z,58.44
2019-03-27T19:04:32.411Z,58.44
2019-03-27T19:07:07.958Z,58.61
2019-03-27T19:09:43.646Z,58.48
2019-03-27T19:12:19.272Z,58.48
2019-03-27T19:14:54.890Z,58.44
2019-03-27T19:17:28.594Z,58.44
2019-03-27T19:20:04.302Z,58.35
2019-03-27T19:22:39.887Z,58.91
2019-03-27T19:25:15.384Z,58.91
2019-03-27T19:27:50.954Z,59.01
2019-03-27T19:30:26.770Z,59.07
2019-03-27T19:33:00.596Z,59.16
2019-03-27T19:35:36.327Z,59.07
2019-03-27T19:38:12.280Z,58.98
2019-03-27T19:40:47.875Z,59.13
2019-03-27T19:43:23.685Z,59.13
2019-03-27T19:45:57.736Z,59.39
2019-03-27T19:48:33.280Z,59.34
2019-03-27T19:51:11.266Z,59.28
2019-03-27T19:53:46.248Z,59.19
2019-03-27T19:56:21.738Z,59.19
2019-03-27T19:58:56.645Z,59.45
2019-03-27T20:01:33.274Z,59.62
2019-03-27T20:04:08.729Z,59.68
2019-03-27T20:06:42.635Z,59.79
2019-03-27T20:09:17.882Z,59.77
2019-03-27T20:11:53.358Z,59.79
2019-03-27T20:14:28.887Z,59.86
2019-03-27T20:17:02.612Z,59.76
2019-03-27T20:19:37.952Z,59.85
2019-03-27T20:22:13.350Z,59.70
2019-03-27T20:24:48.717Z,59.58
2019-03-27T20:27:24.286Z,59.39
2019-03-27T20:29:59.721Z,59.21
2019-03-27T20:32:35.298Z,59.39
2019-03-27T20:35:10.942Z,59.01
2019-03-27T20:37:46.309Z,58.74
2019-03-27T20:40:21.817Z,58.79
2019-03-27T20:42:55.653Z,58.42
2019-03-27T20:45:30.945Z,58.32
2019-03-27T20:48:06.323Z,58.48
2019-03-27T20:50:42.731Z,58.48
2019-03-27T20:53:18.290Z,58.56
2019-03-27T20:55:53.697Z,58.42
2019-03-27T20:58:29.283Z,58.21
2019-03-27T21:01:04.685Z,58.14
2019-03-27T21:03:40.292Z,58.04
2019-03-27T21:06:15.686Z,57.18
2019-03-27T21:08:51.292Z,57.01
2019-03-27T21:11:26.745Z,57.08
2019-03-27T21:14:00.719Z,56.78
2019-03-27T21:16:36.141Z,56.76
2019-03-27T21:19:11.758Z,56.84
2019-03-27T21:21:45.666Z,56.99
2019-03-27T21:24:21.277Z,56.87
2019-03-27T21:26:57.040Z,57.14
2019-03-27T21:29:32.784Z,57.58
2019-03-27T21:32:08.331Z,57.58
2019-03-27T21:34:43.769Z,57.69
2019-03-27T21:37:18.041Z,57.85
2019-03-27T21:39:54.338Z,58.46
2019-03-27T21:42:29.967Z,58.46
2019-03-27T21:45:06.477Z,58.46
2019-03-27T21:47:42.289Z,58.46
2019-03-27T21:50:18.309Z,58.52
2019-03-27T21:53:00.463Z,58.58
2019-03-27T21:55:42.580Z,58.58
2019-03-27T21:58:09.085Z,59.17
2019-03-27T22:00:44.954Z,59.65
2019-03-27T22:03:20.774Z,60.05
2019-03-27T22:05:56.290Z,60.26
2019-03-27T22:08:31.700Z,60.56
2019-03-27T22:11:07.298Z,60.69
2019-03-27T22:13:42.741Z,61.06
2019-03-27T22:18:06.644Z,61.45
2019-03-27T22:20:42.440Z,62.10
2019-03-27T22:23:18.318Z,62.10
2019-03-27T22:25:55.703Z,62.40
2019-03-27T22:28:31.297Z,62.61
2019-03-27T22:31:06.804Z,62.60
2019-03-27T22:33:42.303Z,63.30
2019-03-27T22:36:17.878Z,63.30
2019-03-27T22:38:53.306Z,63.38
2019-03-27T22:41:29.368Z,63.68
2019-03-27T22:44:04.730Z,63.74
2019-03-27T22:46:38.736Z,63.95
2019-03-27T22:49:14.301Z,63.75
2019-03-27T22:51:50.117Z,63.53
2019-03-27T22:54:25.890Z,63.31
2019-03-27T22:58:42.752Z,63.23
2019-03-27T23:01:17.460Z,63.23
2019-03-27T23:03:52.905Z,62.91
2019-03-27T23:06:29.062Z,62.76
2019-03-27T23:09:04.963Z,62.85
2019-03-27T23:11:40.966Z,62.47
2019-03-27T23:14:14.605Z,62.79
2019-03-27T23:16:49.971Z,62.79
2019-03-27T23:19:25.349Z,62.69
2019-03-27T23:22:00.899Z,62.63
2019-03-27T23:24:34.629Z,62.75
2019-03-27T23:27:09.903Z,62.71
2019-03-27T23:29:45.301Z,62.81
2019-03-27T23:32:21.300Z,62.62
2019-03-27T23:34:56.739Z,62.52
2019-03-27T23:40:01.764Z,62.43
2019-03-27T23:42:37.298Z,62.43
2019-03-27T23:45:13.451Z,62.67
2019-03-27T23:47:49.274Z,63.14
2019-03-27T23:50:24.896Z,63.52
2019-03-27T23:52:58.603Z,63.83
2019-03-27T23:55:33.870Z,63.83
2019-03-27T23:58:09.369Z,63.89
